createdAt,value
2022-12-03T00:02:15.802Z,4.64
2022-12-03T00:04:42.464Z,4.64
2022-12-03T00:07:09.011Z,4.63
2022-12-03T00:09:35.478Z,4.65
2022-12-03T00:12:01.985Z,4.65
2022-12-03T00:14:28.580Z,4.64
2022-12-03T00:16:55.077Z,4.62
2022-12-03T00:19:21.657Z,4.59
2022-12-03T00:21:48.133Z,4.57
2022-12-03T00:24:14.653Z,4.56
2022-12-03T00:26:41.200Z,4.51
2022-12-03T00:29:07.701Z,4.49
2022-12-03T00:31:34.370Z,4.47
2022-12-03T00:34:00.880Z,4.46
2022-12-03T00:36:27.455Z,4.44
2022-12-03T00:38:54.028Z,4.43
2022-12-03T00:41:20.497Z,4.42
2022-12-03T00:43:46.948Z,4.40
2022-12-03T00:46:16.915Z,4.35
2022-12-03T00:48:46.417Z,4.31
2022-12-03T00:51:13.102Z,4.27
2022-12-03T00:53:39.748Z,4.26
2022-12-03T00:56:06.729Z,4.22
2022-12-03T00:58:33.401Z,4.23
2022-12-03T01:01:00.017Z,4.20
2022-12-03T01:03:26.656Z,4.19
2022-12-03T01:05:53.180Z,4.16
2022-12-03T01:08:19.717Z,4.14
2022-12-03T01:10:46.257Z,4.09
2022-12-03T01:13:12.792Z,4.09
2022-12-03T01:15:39.295Z,4.08
2022-12-03T01:18:05.881Z,4.08
2022-12-03T01:20:32.355Z,4.10
2022-12-03T01:22:59.055Z,4.09
2022-12-03T01:25:25.552Z,4.09
2022-12-03T01:27:52.089Z,4.10
2022-12-03T01:30:18.708Z,4.09
2022-12-03T01:32:45.161Z,4.07
2022-12-03T01:35:11.664Z,4.07
2022-12-03T01:37:38.219Z,4.07
2022-12-03T01:40:07.114Z,4.08
2022-12-03T01:42:37.131Z,4.05
2022-12-03T01:45:04.392Z,4.07
2022-12-03T01:47:36.146Z,4.05
2022-12-03T01:50:07.423Z,4.07
2022-12-03T01:52:38.277Z,4.07
2022-12-03T01:55:12.394Z,4.08
2022-12-03T01:57:48.373Z,4.05
2022-12-03T02:00:21.042Z,4.03
2022-12-03T02:02:59.507Z,3.98
2022-12-03T02:05:32.206Z,3.97
2022-12-03T02:07:59.796Z,3.97
2022-12-03T02:10:31.699Z,3.93
2022-12-03T02:13:02.958Z,3.92
2022-12-03T02:15:32.428Z,3.93
2022-12-03T02:17:59.284Z,3.92
2022-12-03T02:20:26.528Z,3.91
2022-12-03T02:23:23.889Z,3.89
2022-12-03T02:25:50.416Z,3.88
2022-12-03T02:28:16.999Z,3.89
2022-12-03T02:30:43.538Z,3.88
2022-12-03T02:33:10.564Z,3.89
2022-12-03T02:35:38.363Z,3.88
2022-12-03T02:38:18.290Z,3.86
2022-12-03T02:40:47.000Z,3.87
2022-12-03T02:43:15.853Z,3.87
2022-12-03T02:45:44.752Z,3.87
2022-12-03T02:48:16.792Z,3.84
2022-12-03T02:50:48.763Z,3.85
2022-12-03T02:53:19.706Z,3.87
2022-12-03T02:55:47.498Z,3.86
2022-12-03T02:58:15.038Z,3.87
2022-12-03T03:00:43.154Z,3.88
2022-12-03T03:03:10.153Z,3.84
2022-12-03T03:05:39.641Z,3.89
2022-12-03T03:08:08.373Z,3.89
2022-12-03T03:10:38.820Z,3.88
2022-12-03T03:13:15.187Z,3.86
2022-12-03T03:15:42.661Z,3.86
2022-12-03T03:18:11.171Z,3.84
2022-12-03T03:20:38.680Z,3.83
2022-12-03T03:23:18.252Z,3.75
2022-12-03T03:25:49.668Z,3.75
2022-12-03T03:28:16.826Z,3.74
2022-12-03T03:30:44.419Z,3.73
2022-12-03T03:33:13.180Z,3.73
2022-12-03T03:35:40.231Z,3.73
2022-12-03T03:38:08.132Z,3.75
2022-12-03T03:40:34.994Z,3.76
2022-12-03T03:43:01.984Z,3.81
2022-12-03T03:45:29.597Z,3.84
2022-12-03T03:47:59.258Z,3.84
2022-12-03T03:50:28.815Z,3.82
2022-12-03T03:52:56.661Z,3.79
2022-12-03T03:55:23.574Z,3.77
2022-12-03T03:57:50.354Z,3.77
2022-12-03T04:00:17.263Z,3.75
2022-12-03T04:02:43.864Z,3.76
2022-12-03T04:05:17.079Z,3.75
2022-12-03T04:07:43.697Z,3.75
2022-12-03T04:10:11.014Z,3.74
2022-12-03T04:12:37.553Z,3.73
2022-12-03T04:15:04.649Z,3.74
2022-12-03T04:17:31.296Z,3.74
2022-12-03T04:19:57.769Z,3.77
2022-12-03T04:22:24.616Z,3.74
2022-12-03T04:24:51.448Z,3.71
2022-12-03T04:27:18.279Z,3.69
2022-12-03T04:29:44.788Z,3.69
2022-12-03T04:32:11.358Z,3.69
2022-12-03T04:34:38.045Z,3.71
2022-12-03T04:37:05.136Z,3.71
2022-12-03T04:39:31.666Z,3.73
2022-12-03T04:41:58.244Z,3.74
2022-12-03T04:44:24.854Z,3.74
2022-12-03T04:46:51.387Z,3.75
2022-12-03T04:49:17.997Z,3.77
2022-12-03T04:51:44.568Z,3.76
2022-12-03T04:54:11.216Z,3.76
2022-12-03T04:56:37.654Z,3.78
2022-12-03T04:59:04.302Z,3.78
2022-12-03T05:01:30.907Z,3.81
2022-12-03T05:03:57.485Z,3.79
2022-12-03T05:06:24.171Z,3.79
2022-12-03T05:08:50.618Z,3.80
2022-12-03T05:11:17.220Z,3.80
2022-12-03T05:13:47.513Z,3.81
2022-12-03T05:16:14.267Z,3.79
2022-12-03T05:18:40.868Z,3.81
2022-12-03T05:21:07.305Z,3.80
2022-12-03T05:23:33.775Z,3.80
2022-12-03T05:26:00.276Z,3.82
2022-12-03T05:28:26.720Z,3.82
2022-12-03T05:30:53.385Z,3.81
2022-12-03T05:33:20.249Z,3.84
2022-12-03T05:35:47.298Z,3.83
2022-12-03T05:38:13.884Z,3.85
2022-12-03T05:40:40.453Z,3.83
2022-12-03T05:43:06.969Z,3.82
2022-12-03T05:45:36.447Z,3.81
2022-12-03T05:48:05.150Z,3.84
2022-12-03T05:50:33.989Z,3.83
2022-12-03T05:53:14.172Z,3.83
2022-12-03T05:55:40.738Z,3.82
2022-12-03T05:58:07.926Z,3.83
2022-12-03T06:00:42.080Z,3.83
2022-12-03T06:03:09.847Z,3.83
2022-12-03T06:05:36.474Z,3.87
2022-12-03T06:08:03.200Z,3.91
2022-12-03T06:10:29.911Z,3.91
2022-12-03T06:12:56.574Z,3.89
2022-12-03T06:15:23.309Z,3.88
2022-12-03T06:17:49.969Z,3.87
2022-12-03T06:20:19.021Z,3.85
2022-12-03T06:22:45.843Z,3.85
2022-12-03T06:25:13.531Z,3.86
2022-12-03T06:27:40.165Z,3.86
2022-12-03T06:30:07.801Z,3.85
2022-12-03T06:32:34.413Z,3.84
2022-12-03T06:35:00.913Z,3.84
2022-12-03T06:37:27.369Z,3.85
2022-12-03T06:39:53.990Z,3.83
2022-12-03T06:42:20.564Z,3.83
2022-12-03T06:44:47.130Z,3.81
2022-12-03T06:47:13.585Z,3.82
2022-12-03T06:49:40.078Z,3.83
2022-12-03T06:52:06.612Z,3.84
2022-12-03T06:54:33.201Z,3.81
2022-12-03T06:56:59.946Z,3.83
2022-12-03T06:59:26.403Z,3.81
2022-12-03T07:01:53.414Z,3.84
2022-12-03T07:04:19.923Z,3.82
2022-12-03T07:06:46.493Z,3.81
2022-12-03T07:09:13.737Z,3.79
2022-12-03T07:11:40.294Z,3.77
2022-12-03T07:14:08.258Z,3.76
2022-12-03T07:16:35.893Z,3.77
2022-12-03T07:19:04.580Z,3.77
2022-12-03T07:21:31.522Z,3.75
2022-12-03T07:23:58.264Z,3.77
2022-12-03T07:26:25.026Z,3.79
2022-12-03T07:28:51.505Z,3.80
2022-12-03T07:31:18.005Z,3.80
2022-12-03T07:33:44.608Z,3.78
2022-12-03T07:36:11.142Z,3.77
2022-12-03T07:38:37.628Z,3.76
2022-12-03T07:41:04.164Z,3.76
2022-12-03T07:43:30.916Z,3.77
2022-12-03T07:45:57.492Z,3.79
2022-12-03T07:48:24.109Z,3.83
2022-12-03T07:50:50.625Z,3.84
2022-12-03T07:53:17.364Z,3.83
2022-12-03T07:55:43.852Z,3.84
2022-12-03T07:58:10.466Z,3.81
2022-12-03T08:00:37.118Z,3.83
2022-12-03T08:03:03.698Z,3.83
2022-12-03T08:05:30.171Z,3.85
2022-12-03T08:07:56.956Z,3.83
2022-12-03T08:10:25.585Z,3.83
2022-12-03T08:12:52.422Z,3.83
2022-12-03T08:15:23.057Z,3.80
2022-12-03T08:17:58.523Z,3.84
2022-12-03T08:20:28.109Z,3.83
2022-12-03T08:22:55.903Z,3.88
2022-12-03T08:25:23.957Z,3.86
2022-12-03T08:27:53.910Z,3.87
2022-12-03T08:30:20.681Z,3.89
2022-12-03T08:32:47.984Z,3.88
2022-12-03T08:35:19.366Z,3.87
2022-12-03T08:37:45.932Z,3.88
2022-12-03T08:40:36.057Z,3.89
2022-12-03T08:43:16.082Z,3.92
2022-12-03T08:45:42.886Z,3.93
2022-12-03T08:48:19.250Z,3.89
2022-12-03T08:50:46.598Z,3.97
2022-12-03T08:53:13.018Z,4.00
2022-12-03T08:55:45.334Z,4.04
2022-12-03T08:58:37.527Z,4.04
2022-12-03T09:01:31.810Z,4.07
2022-12-03T09:04:21.821Z,4.08
2022-12-03T09:06:48.606Z,4.14
2022-12-03T09:09:15.449Z,4.16
2022-12-03T09:11:42.170Z,4.20
2022-12-03T09:14:12.582Z,4.25
2022-12-03T09:16:43.983Z,4.28
2022-12-03T09:19:10.534Z,4.30
2022-12-03T09:21:37.027Z,4.32
2022-12-03T09:24:03.822Z,4.34
2022-12-03T09:26:30.331Z,4.36
2022-12-03T09:28:56.958Z,4.38
2022-12-03T09:31:24.362Z,4.41
2022-12-03T09:33:50.960Z,4.43
2022-12-03T09:36:17.517Z,4.45
2022-12-03T09:38:47.740Z,4.46
2022-12-03T09:41:14.925Z,4.46
2022-12-03T09:44:03.151Z,4.47
2022-12-03T09:46:30.176Z,4.47
2022-12-03T09:48:57.422Z,4.52
2022-12-03T09:51:30.483Z,4.51
2022-12-03T09:53:59.799Z,4.55
2022-12-03T09:56:26.400Z,4.58
2022-12-03T09:58:53.034Z,4.57
2022-12-03T10:01:21.235Z,4.59
2022-12-03T10:03:50.723Z,4.59
2022-12-03T10:06:23.807Z,4.61
2022-12-03T10:08:54.144Z,4.60
2022-12-03T10:11:24.500Z,4.60
2022-12-03T10:13:53.919Z,4.60
2022-12-03T10:16:21.291Z,4.59
2022-12-03T10:19:00.524Z,4.56
2022-12-03T10:21:31.483Z,4.56
2022-12-03T10:24:16.480Z,4.53
2022-12-03T10:26:44.504Z,4.55
2022-12-03T10:29:14.480Z,4.50
2022-12-03T10:31:40.987Z,4.57
2022-12-03T10:34:09.713Z,4.61
2022-12-03T10:36:36.494Z,4.63
2022-12-03T10:39:08.759Z,4.63
2022-12-03T10:41:35.893Z,4.67
2022-12-03T10:44:28.698Z,4.65
2022-12-03T10:47:07.295Z,4.69
2022-12-03T10:49:34.022Z,4.70
2022-12-03T10:52:00.675Z,4.70
2022-12-03T10:54:29.762Z,4.70
2022-12-03T10:56:56.570Z,4.71
2022-12-03T10:59:31.868Z,4.71
2022-12-03T11:01:58.508Z,4.73
2022-12-03T11:04:35.895Z,4.73
2022-12-03T11:07:11.663Z,4.75
2022-12-03T11:09:38.147Z,4.78
2022-12-03T11:12:07.134Z,4.83
2022-12-03T11:14:52.109Z,4.81
2022-12-03T11:17:51.765Z,4.79
2022-12-03T11:20:22.564Z,4.82
2022-12-03T11:22:54.473Z,4.80
2022-12-03T11:25:27.201Z,4.82
2022-12-03T11:28:12.103Z,4.84
2022-12-03T11:31:07.158Z,4.83
2022-12-03T11:33:40.474Z,4.84
2022-12-03T11:36:06.969Z,4.84
2022-12-03T11:38:52.953Z,4.86
2022-12-03T11:41:25.962Z,4.81
2022-12-03T11:43:52.491Z,4.83
2022-12-03T11:46:23.327Z,4.82
2022-12-03T11:48:52.389Z,4.81
2022-12-03T11:51:22.251Z,4.78
2022-12-03T11:53:51.384Z,4.78
2022-12-03T11:56:25.125Z,4.76
2022-12-03T11:59:00.457Z,4.75
2022-12-03T12:01:39.273Z,4.77
2022-12-03T12:04:07.868Z,4.78
2022-12-03T12:06:42.648Z,4.79
2022-12-03T12:09:09.925Z,4.80
2022-12-03T12:11:40.409Z,4.81
2022-12-03T12:14:11.906Z,4.81
2022-12-03T12:16:52.632Z,4.80
2022-12-03T12:19:42.241Z,4.78
2022-12-03T12:22:23.983Z,4.79
2022-12-03T12:24:55.801Z,4.78
2022-12-03T12:27:31.178Z,4.76
2022-12-03T12:30:03.734Z,4.77
2022-12-03T12:32:33.106Z,4.75
2022-12-03T12:35:15.312Z,4.76
2022-12-03T12:37:48.168Z,4.72
2022-12-03T12:40:18.192Z,4.71
2022-12-03T12:42:55.195Z,4.64
2022-12-03T12:45:24.735Z,4.70
2022-12-03T12:48:09.754Z,4.74
2022-12-03T12:50:38.442Z,4.77
2022-12-03T12:53:10.628Z,4.75
2022-12-03T12:55:39.121Z,4.72
2022-12-03T12:58:15.688Z,4.71
2022-12-03T13:00:42.981Z,4.71
2022-12-03T13:03:11.818Z,4.69
2022-12-03T13:05:44.318Z,4.68
2022-12-03T13:08:37.666Z,4.67
2022-12-03T13:11:04.245Z,4.64
2022-12-03T13:13:43.364Z,4.60
2022-12-03T13:16:23.835Z,4.59
2022-12-03T13:18:54.878Z,4.58
2022-12-03T13:21:40.892Z,4.55
2022-12-03T13:24:39.110Z,4.57
2022-12-03T13:27:17.545Z,4.53
2022-12-03T13:29:45.121Z,4.53
2022-12-03T13:32:23.077Z,4.51
2022-12-03T13:34:49.774Z,4.44
2022-12-03T13:37:20.771Z,4.48
2022-12-03T13:39:53.412Z,4.49
2022-12-03T13:42:22.670Z,4.52
2022-12-03T13:44:50.052Z,4.50
2022-12-03T13:47:20.707Z,4.46
2022-12-03T13:49:52.561Z,4.44
2022-12-03T13:52:23.811Z,4.41
2022-12-03T13:54:55.992Z,4.41
2022-12-03T13:57:23.032Z,4.39
2022-12-03T13:59:49.843Z,4.40
2022-12-03T14:02:16.449Z,4.39
2022-12-03T14:04:43.026Z,4.40
2022-12-03T14:07:09.658Z,4.39
2022-12-03T14:09:36.091Z,4.36
2022-12-03T14:12:03.588Z,4.35
2022-12-03T14:14:30.132Z,4.35
2022-12-03T14:16:59.866Z,4.35
2022-12-03T14:19:26.877Z,4.38
2022-12-03T14:21:53.330Z,4.38
2022-12-03T14:24:19.922Z,4.41
2022-12-03T14:26:46.524Z,4.41
2022-12-03T14:29:13.048Z,4.40
2022-12-03T14:31:39.707Z,4.40
2022-12-03T14:34:06.489Z,4.41
2022-12-03T14:36:33.073Z,4.41
2022-12-03T14:38:59.529Z,4.40
2022-12-03T14:41:25.981Z,4.41
2022-12-03T14:43:52.543Z,4.39
2022-12-03T14:46:19.622Z,4.39
2022-12-03T14:48:46.158Z,4.37
2022-12-03T14:51:12.614Z,4.36
2022-12-03T14:53:39.133Z,4.35
2022-12-03T14:56:05.626Z,4.36
2022-12-03T14:58:32.209Z,4.33
2022-12-03T15:00:58.729Z,4.34
2022-12-03T15:03:25.256Z,4.34
2022-12-03T15:05:51.962Z,4.33
2022-12-03T15:08:18.468Z,4.29
2022-12-03T15:10:45.073Z,4.30
2022-12-03T15:13:11.565Z,4.28
2022-12-03T15:15:38.043Z,4.27
2022-12-03T15:18:04.598Z,4.23
2022-12-03T15:20:31.107Z,4.22
2022-12-03T15:22:57.568Z,4.17
2022-12-03T15:25:24.030Z,4.16
2022-12-03T15:27:50.606Z,4.16
2022-12-03T15:30:17.393Z,4.16
2022-12-03T15:32:43.854Z,4.14
2022-12-03T15:35:10.374Z,4.13
2022-12-03T15:37:36.814Z,4.12
2022-12-03T15:40:03.477Z,4.13
2022-12-03T15:42:29.999Z,4.16
2022-12-03T15:44:56.596Z,4.18
2022-12-03T15:47:23.255Z,4.16
2022-12-03T15:49:49.991Z,4.17
2022-12-03T15:52:16.428Z,4.14
2022-12-03T15:54:42.970Z,4.10
2022-12-03T15:57:09.641Z,4.10
2022-12-03T15:59:36.089Z,4.07
2022-12-03T16:02:02.653Z,4.06
2022-12-03T16:04:29.259Z,4.05
2022-12-03T16:06:55.786Z,4.03
2022-12-03T16:09:27.027Z,3.99
2022-12-03T16:11:54.560Z,3.97
2022-12-03T16:14:21.078Z,3.98
2022-12-03T16:16:47.725Z,3.96
2022-12-03T16:19:14.244Z,3.96
2022-12-03T16:21:40.780Z,3.97
2022-12-03T16:24:07.463Z,3.96
2022-12-03T16:26:34.039Z,3.96
2022-12-03T16:29:00.553Z,3.97
2022-12-03T16:31:27.087Z,3.97
2022-12-03T16:33:53.672Z,3.94
2022-12-03T16:36:20.266Z,3.90
2022-12-03T16:38:46.809Z,3.89
2022-12-03T16:41:13.261Z,3.88
2022-12-03T16:43:39.836Z,3.87
2022-12-03T16:46:06.565Z,3.88
2022-12-03T16:48:33.062Z,3.85
2022-12-03T16:50:59.638Z,3.80
2022-12-03T16:53:26.174Z,3.77
2022-12-03T16:55:52.641Z,3.74
2022-12-03T16:58:19.081Z,3.73
2022-12-03T17:00:45.690Z,3.71
2022-12-03T17:03:12.283Z,3.70
2022-12-03T17:05:38.752Z,3.73
2022-12-03T17:08:05.377Z,3.74
2022-12-03T17:10:32.025Z,3.73
2022-12-03T17:13:09.474Z,3.72
2022-12-03T17:15:37.229Z,3.69
2022-12-03T17:18:03.959Z,3.71
2022-12-03T17:20:31.196Z,3.65
2022-12-03T17:22:59.470Z,3.62
2022-12-03T17:25:27.206Z,3.60
2022-12-03T17:27:54.084Z,3.58
2022-12-03T17:30:20.869Z,3.57
2022-12-03T17:32:47.421Z,3.57
2022-12-03T17:35:13.976Z,3.58
2022-12-03T17:37:40.485Z,3.57
2022-12-03T17:40:09.230Z,3.61
2022-12-03T17:42:35.888Z,3.65
2022-12-03T17:45:02.993Z,3.66
2022-12-03T17:47:29.487Z,3.67
2022-12-03T17:49:56.470Z,3.67
2022-12-03T17:52:23.200Z,3.68
2022-12-03T17:55:09.672Z,3.70
2022-12-03T17:57:36.332Z,3.71
2022-12-03T18:00:03.188Z,3.71
2022-12-03T18:02:39.105Z,3.74
2022-12-03T18:05:05.947Z,3.74
2022-12-03T18:07:32.627Z,3.80
2022-12-03T18:09:59.581Z,3.81
2022-12-03T18:12:26.171Z,3.76
2022-12-03T18:14:52.684Z,3.71
2022-12-03T18:17:19.253Z,3.69
2022-12-03T18:19:45.766Z,3.69
2022-12-03T18:22:12.283Z,3.68
2022-12-03T18:24:38.878Z,3.68
2022-12-03T18:27:05.375Z,3.71
2022-12-03T18:29:32.131Z,3.69
2022-12-03T18:31:58.780Z,3.71
2022-12-03T18:34:25.404Z,3.71
2022-12-03T18:36:52.174Z,3.72
2022-12-03T18:39:27.608Z,3.71
2022-12-03T18:41:54.243Z,3.74
2022-12-03T18:44:21.092Z,3.75
2022-12-03T18:46:55.154Z,3.77
2022-12-03T18:49:22.128Z,3.76
2022-12-03T18:51:49.828Z,3.75
2022-12-03T18:54:18.747Z,3.75
2022-12-03T18:56:45.321Z,3.70
2022-12-03T18:59:11.858Z,3.68
2022-12-03T19:01:38.396Z,3.67
2022-12-03T19:04:05.080Z,3.70
2022-12-03T19:06:32.072Z,3.71
2022-12-03T19:08:58.742Z,3.69
2022-12-03T19:11:25.330Z,3.64
2022-12-03T19:13:51.857Z,3.64
2022-12-03T19:16:18.602Z,3.66
2022-12-03T19:18:45.307Z,3.66
2022-12-03T19:21:14.169Z,3.64
2022-12-03T19:23:42.794Z,3.63
2022-12-03T19:26:14.533Z,3.63
2022-12-03T19:28:41.870Z,3.63
2022-12-03T19:31:16.968Z,3.63
2022-12-03T19:33:44.378Z,3.65
2022-12-03T19:36:26.192Z,3.63
2022-12-03T19:38:57.165Z,3.69
2022-12-03T19:41:26.371Z,3.67
2022-12-03T19:43:54.330Z,3.69
2022-12-03T19:46:22.334Z,3.66
2022-12-03T19:48:48.877Z,3.58
2022-12-03T19:51:33.656Z,3.67
2022-12-03T19:54:02.665Z,3.65
2022-12-03T19:56:29.271Z,3.63
2022-12-03T19:58:56.451Z,3.63
2022-12-03T20:01:25.845Z,3.62
2022-12-03T20:03:54.949Z,3.60
2022-12-03T20:06:23.845Z,3.62
2022-12-03T20:08:51.391Z,3.63
2022-12-03T20:11:21.422Z,3.61
2022-12-03T20:13:51.654Z,3.62
2022-12-03T20:16:18.627Z,3.62
2022-12-03T20:18:46.966Z,3.63
2022-12-03T20:21:15.118Z,3.66
2022-12-03T20:23:41.721Z,3.67
2022-12-03T20:26:21.328Z,3.71
2022-12-03T20:28:48.690Z,3.72
2022-12-03T20:31:18.383Z,3.74
2022-12-03T20:33:48.147Z,3.73
2022-12-03T20:36:17.287Z,3.70
2022-12-03T20:38:44.345Z,3.69
2022-12-03T20:41:14.882Z,3.67
2022-12-03T20:43:41.794Z,3.66
2022-12-03T20:46:29.123Z,3.65
2022-12-03T20:48:56.654Z,3.65
2022-12-03T20:51:25.336Z,3.68
2022-12-03T20:53:52.076Z,3.69
2022-12-03T20:56:24.554Z,3.68
2022-12-03T20:58:51.044Z,3.69
2022-12-03T21:01:20.715Z,3.70
2022-12-03T21:03:48.235Z,3.74
2022-12-03T21:06:15.763Z,3.75
2022-12-03T21:08:43.733Z,3.77
2022-12-03T21:11:10.996Z,3.72
2022-12-03T21:13:37.934Z,3.78
2022-12-03T21:16:07.006Z,3.82
2022-12-03T21:18:33.726Z,3.81
2022-12-03T21:21:02.161Z,3.83
2022-12-03T21:23:29.572Z,3.84
2022-12-03T21:26:07.167Z,3.83
2022-12-03T21:28:33.771Z,3.84
2022-12-03T21:31:05.800Z,3.85
2022-12-03T21:33:32.885Z,3.86
2022-12-03T21:35:59.942Z,3.87
2022-12-03T21:38:27.922Z,3.87
2022-12-03T21:40:55.045Z,3.89
2022-12-03T21:43:22.233Z,3.89
2022-12-03T21:45:48.986Z,3.89
2022-12-03T21:48:16.467Z,3.92
2022-12-03T21:50:43.523Z,3.92
2022-12-03T21:53:10.690Z,3.91
2022-12-03T21:55:40.454Z,3.90
2022-12-03T21:58:08.433Z,3.92
2022-12-03T22:00:35.252Z,3.92
2022-12-03T22:03:01.965Z,3.92
2022-12-03T22:05:28.552Z,3.93
2022-12-03T22:07:55.107Z,3.93
2022-12-03T22:10:21.762Z,3.93
2022-12-03T22:12:48.311Z,3.96
2022-12-03T22:15:18.678Z,3.97
2022-12-03T22:17:45.868Z,3.96
2022-12-03T22:20:12.434Z,3.95
2022-12-03T22:22:39.038Z,3.95
2022-12-03T22:25:05.841Z,3.96
2022-12-03T22:27:32.475Z,3.96
2022-12-03T22:29:59.002Z,3.97
2022-12-03T22:32:25.578Z,3.97
2022-12-03T22:34:52.027Z,3.97
2022-12-03T22:37:18.561Z,3.97
2022-12-03T22:39:45.015Z,3.99
2022-12-03T22:42:11.571Z,3.99
2022-12-03T22:44:38.145Z,3.99
2022-12-03T22:47:04.898Z,3.99
2022-12-03T22:49:31.436Z,3.99
2022-12-03T22:51:57.994Z,3.97
2022-12-03T22:54:24.699Z,3.98
2022-12-03T22:56:51.234Z,3.99
2022-12-03T22:59:17.910Z,3.98
2022-12-03T23:01:44.446Z,3.98
2022-12-03T23:04:11.935Z,3.98
2022-12-03T23:06:38.861Z,3.98
2022-12-03T23:09:06.878Z,4.00
2022-12-03T23:11:33.881Z,3.94
2022-12-03T23:14:00.370Z,3.99
2022-12-03T23:16:30.481Z,4.04
2022-12-03T23:18:58.500Z,4.05
2022-12-03T23:21:29.851Z,4.03
2022-12-03T23:24:00.897Z,4.00
2022-12-03T23:26:28.524Z,3.99
2022-12-03T23:28:55.101Z,3.99
2022-12-03T23:31:28.036Z,3.97
2022-12-03T23:33:55.792Z,3.98
2022-12-03T23:36:24.452Z,3.98
2022-12-03T23:38:50.999Z,3.97
2022-12-03T23:41:19.922Z,3.97
2022-12-03T23:43:46.996Z,3.97
2022-12-03T23:46:15.904Z,3.98
2022-12-03T23:48:43.469Z,3.97
2022-12-03T23:51:15.911Z,3.98
2022-12-03T23:53:42.654Z,3.98
2022-12-03T23:56:12.036Z,3.96
2022-12-03T23:58:38.712Z,3.95
